Cardigan, Canada
Current Conditions -  °F | °C
As of 12:00 PM on Friday 31 Oct 2014 (Local Time) from CYYG Reporting Station
Few Clouds Few Clouds  
Wind Chill: 45°   Ceiling: Unl
Heat Index: 48°   Visibility: 15mi
Dew Point: 32°   Wind: 8mph
Humidity: 54%   Direction: 340°NNW
Pressure: 30.06"   Gusts: NA
Location:  46.23°N, 62.62°W
Report Text: CYYG 311500Z 34007KT 290V360 15SM FEW040 09/M00 A3006 RMK CF1 SLP179
Loading
Personal Weather Stations






























Interactive Weather Map
Tropical Storm Tracking
New forecast layout! Learn more

10-Day Weather Forecast

Advertisements
Track Severe Weather on mobile